Flight Track Log - Related Links

Times and Time Zones

All times are in EDT time to prevent confusion due to time zone crossing. See the CPZ5750 flight status page for this flight to view local times or setup timezone preferences in your user account.

Time Position Orientation Groundspeed Altitude Reporting Facility
EDT Latitude Longitude Course Direction KTS MPH feet Rate Location/Type
Mon 07:35:34 PM 42.7503 -73.8311 281° West 133 153 1,300  Level Boston Center
Mon 07:36:35 PM 42.7789 -73.8911 303° West 197 227 3,000 1,828 Climbing Boston Center
Mon 07:38:00 PM 42.8429 -74.3907 283° West  Level FlightAware
Mon 07:38:28 PM 42.8567 -73.9950 316° Northwest 260 299 6,600  Level Boston Center
Mon 07:39:00 PM 42.8713 -74.5379 324° Northwest  Level FlightAware
Mon 07:39:28 PM 42.9242 -74.0875 315° West 265 305 10,400  Level Boston Center
Mon 07:40:00 PM 42.9014 -74.6815 281° West  Level FlightAware
Mon 07:40:28 PM 42.9792 -74.1628 315° West 296 341 11,600  Level Boston Center
Mon 07:41:00 PM 42.9221 -74.8331 281° West  Level FlightAware
Mon 07:41:28 PM 43.0528 -74.2614 316° Northwest 324 373 14,000  Level Boston Center
Mon 07:42:40 PM 43.1139 -74.3428 316° Northwest 330 380 15,600 1,818 Climbing Boston Center
Mon 07:43:40 PM 43.1489 -74.4919 288° West 335 386 18,000 2,100 Climbing Boston Center
Mon 07:44:40 PM 43.1506 -74.6314 271° West 335 386 19,800 1,800 Climbing Boston Center
Mon 07:45:40 PM 43.1519 -74.7711 271° West 357 411 21,600 1,650 Climbing Boston Center
Mon 07:46:40 PM 43.1531 -74.9161 271° West 368 423 23,100 1,400 Climbing Boston Center
Mon 07:47:40 PM 43.1539 -75.0614 271° West 378 435 24,400 1,150 Climbing Boston Center
Mon 07:48:40 PM 43.1603 -75.2297 273° West 392 451 25,400 1,000 Climbing Boston Center
Mon 07:49:40 PM 43.2025 -75.3797 291° West 404 465 26,400 1,000 Climbing Boston Center
Mon 07:50:40 PM 43.2506 -75.5275 294° West 417 480 27,400 1,000 Climbing Boston Center
Mon 07:51:40 PM 43.3006 -75.6783 295° West 422 486 28,400 1,000 Climbing Boston Center
Mon 07:52:40 PM 43.3483 -75.8294 294° West 427 491 29,400 1,000 Climbing Boston Center
Mon 07:53:40 PM 43.3958 -75.9836 293° West 432 497 30,400 950 Climbing Boston Center
Mon 07:54:40 PM 43.4411 -76.1322 293° West 432 497 31,300 850 Climbing Boston Center
Mon 07:55:40 PM 43.4881 -76.2867 293° West 432 497 32,100 800 Climbing Boston Center
Mon 07:56:40 PM 43.5369 -76.4444 293° West 437 503 32,900 800 Climbing Boston Center
Mon 07:57:40 PM 43.5836 -76.5997 293° West 437 503 33,700 800 Climbing Boston Center
Mon 07:58:40 PM 43.6222 -76.7400 291° West 437 503 34,500 792 Climbing Boston Center
Mon 08:00:04 PM 43.6833 -76.9333 294° West 430 495 35,600 441 Climbing Toronto Center
Mon 08:02:04 PM 43.7667 -77.2500 290° West 440 506 36,000 133 Climbing Toronto Center
Mon 08:03:04 PM 43.8167 -77.4167 293° West 450 518 36,000  Level Toronto Center
Mon 08:05:04 PM 43.9167 -77.7333 294° West 460 529 36,000  Level Toronto Center
Mon 08:06:04 PM 43.9500 -77.9167 284° West 450 518 36,000  Level Toronto Center
Mon 08:07:04 PM 44.0000 -78.0500 298° West 450 518 36,000  Level Toronto Center
Mon 08:08:04 PM 44.0500 -78.2333 291° West 460 529 36,000  Level Toronto Center
Mon 08:09:04 PM 44.0833 -78.4000 286° West 450 518 36,000  Level Toronto Center
Mon 08:10:04 PM 44.1500 -78.5667 299° West 450 518 36,000  Level Toronto Center
Mon 08:11:04 PM 44.1833 -78.7333 286° West 450 518 36,000  Level Toronto Center
Mon 08:12:04 PM 44.2333 -78.8833 295° West 450 518 36,000  Level Toronto Center
Mon 08:13:04 PM 44.2833 -79.0500 293° West 450 518 36,000  Level Toronto Center
Mon 08:14:04 PM 44.3167 -79.2167 286° West 450 518 36,000  Level Toronto Center
Mon 08:15:04 PM 44.3167 -79.4000 270° West 450 518 36,000  Level Toronto Center
Mon 08:16:04 PM 44.3333 -79.5667 278° West 450 518 36,000  Level Toronto Center
Mon 08:17:04 PM 44.3500 -79.7500 277° West 450 518 36,000  Level Toronto Center
Mon 08:18:04 PM 44.3500 -79.9167 270° West 450 518 36,000  Level Toronto Center
Mon 08:19:04 PM 44.3667 -80.1000 277° West 450 518 36,000  Level Toronto Center
Mon 08:20:04 PM 44.3833 -80.2667 278° West 450 518 36,000  Level Toronto Center
Mon 08:21:04 PM 44.3833 -80.4333 270° West 450 518 36,000  Level Toronto Center
Mon 08:22:04 PM 44.4000 -80.6167 277° West 450 518 36,000  Level Toronto Center
Mon 08:23:04 PM 44.4167 -80.8000 277° West 450 518 36,000  Level Toronto Center
Mon 08:24:04 PM 44.4000 -80.9667 262° West 460 529 36,000  Level Toronto Center
Mon 08:25:04 PM 44.4167 -81.1500 277° West 450 518 36,000  Level Toronto Center
Mon 08:26:04 PM 44.4333 -81.3167 278° West 460 529 36,000  Level Toronto Center
Mon 08:27:04 PM 44.4333 -81.5000 270° West 450 518 36,000  Level Toronto Center
Mon 08:28:04 PM 44.4500 -81.6833 277° West 450 518 36,000  Level Toronto Center
Mon 08:29:04 PM 44.4500 -81.8500 270° West 460 529 36,000  Level Toronto Center
Mon 08:30:04 PM 44.4500 -82.0333 270° West 450 518 36,000  Level Toronto Center
Mon 08:31:04 PM 44.4667 -82.2000 278° West 450 518 36,000  Level Toronto Center
Mon 08:32:04 PM 44.4833 -82.3833 277° West 450 518 36,000  Level Toronto Center
Mon 08:32:47 PM 44.4850 -82.4689 272° West 451 519 36,000  Level Minneapolis Center
Mon 08:33:49 PM 44.4919 -82.6769 273° West 449 517 36,000  Level Minneapolis Center
Mon 08:34:51 PM 44.4969 -82.8161 273° West 447 514 36,000  Level Minneapolis Center
Mon 08:35:53 PM 44.5056 -83.0247 273° West 448 516 36,000  Level Minneapolis Center
Mon 08:36:55 PM 44.5108 -83.2350 272° West 449 517 36,000  Level Minneapolis Center
Mon 08:37:57 PM 44.5167 -83.4106 273° West 452 520 36,000  Level Minneapolis Center
Mon 08:38:59 PM 44.5203 -83.5842 272° West 448 516 36,000  Level Minneapolis Center
Mon 08:40:14 PM 44.5278 -83.7925 273° West 447 514 36,000  Level Minneapolis Center
Mon 08:41:16 PM 44.5314 -83.9675 272° West 448 516 36,000  Level Minneapolis Center
Mon 08:42:30 PM 44.5356 -84.1406 272° West 446 513 36,000  Level Minneapolis Center
Mon 08:43:33 PM 44.5414 -84.3811 272° West 443 510 36,000  Level Minneapolis Center
Mon 08:44:35 PM 44.5458 -84.5517 272° West 441 507 36,000  Level Minneapolis Center
Mon 08:45:37 PM 44.5486 -84.7250 271° West 443 510 36,000  Level Minneapolis Center
Mon 08:46:51 PM 44.5561 -84.8964 274° West 443 510 36,000  Level Minneapolis Center
Mon 08:47:53 PM 44.5733 -85.1036 277° West 445 512 36,000  Level Minneapolis Center
Mon 08:48:55 PM 44.5897 -85.3106 276° West 446 513 36,000  Level Minneapolis Center
Mon 08:49:57 PM 44.6019 -85.4839 276° West 447 514 36,000  Level Minneapolis Center
Mon 08:50:59 PM 44.6153 -85.6569 276° West 446 513 36,000  Level Minneapolis Center
Mon 08:52:01 PM 44.6261 -85.7939 276° West 450 518 36,000  Level Minneapolis Center
Mon 08:53:03 PM 44.6411 -86.0022 276° West 450 518 36,000  Level Minneapolis Center
Mon 08:54:06 PM 44.6522 -86.1731 275° West 446 513 36,000  Level Minneapolis Center
Mon 08:55:08 PM 44.6681 -86.3803 276° West 446 513 36,000  Level Minneapolis Center
Mon 08:56:10 PM 44.6803 -86.5547 276° West 449 517 36,000  Level Minneapolis Center
Mon 08:57:12 PM 44.6908 -86.7281 275° West 449 517 36,000  Level Minneapolis Center
Mon 08:58:14 PM 44.7031 -86.9219 275° West 450 518 36,000  Level Minneapolis Center
Mon 08:59:16 PM 44.7133 -87.0964 275° West 449 517 36,000  Level Minneapolis Center
Mon 09:00:18 PM 44.7236 -87.2694 275° West 447 514 36,000  Level Minneapolis Center
Mon 09:01:32 PM 44.7344 -87.4428 275° West 446 513 36,000  Level Minneapolis Center
Mon 09:02:34 PM 44.7461 -87.6517 275° West 447 514 36,000  Level Minneapolis Center
Mon 09:03:36 PM 44.7578 -87.8600 275° West 446 513 36,000  Level Minneapolis Center
Mon 09:04:38 PM 44.7664 -88.0314 274° West 443 510 36,000  Level Minneapolis Center
Mon 09:05:41 PM 44.7750 -88.2036 274° West 442 509 36,000 -240 Level Minneapolis Center
Mon 09:06:43 PM 44.7847 -88.3933 274° West 445 512 35,500 -774 Descending Minneapolis Center
Mon 09:07:45 PM 44.7928 -88.5628 274° West 438 504 34,400 -1,065 Descending Minneapolis Center
Mon 09:08:47 PM 44.8008 -88.7314 274° West 433 498 33,300 -1,065 Descending Minneapolis Center
Mon 09:09:49 PM 44.8094 -88.9022 274° West 436 502 32,200 -629 Descending Minneapolis Center
Mon 09:10:51 PM 44.8178 -89.0750 274° West 443 510 32,000 -97 Descending Minneapolis Center
Mon 09:11:53 PM 44.8264 -89.2786 273° West 447 514 32,000  Level Minneapolis Center
Mon 09:12:55 PM 44.8333 -89.4511 273° West 445 512 32,000  Level Minneapolis Center
Mon 09:13:57 PM 44.8397 -89.6253 273° West 446 513 32,000  Level Minneapolis Center
Mon 09:14:59 PM 44.8469 -89.8058 273° West 442 509 32,000  Level Minneapolis Center
Mon 09:16:01 PM 44.8525 -89.9775 273° West 439 505 32,000  Level Minneapolis Center
Mon 09:17:03 PM 44.8592 -90.1500 273° West 440 506 32,000  Level Minneapolis Center
Mon 09:18:05 PM 44.8681 -90.3222 274° West 441 507 32,000 -145 Level Minneapolis Center
Mon 09:19:07 PM 44.8853 -90.4942 278° West 441 507 31,700 -726 Descending Minneapolis Center
Mon 09:20:09 PM 44.9053 -90.7011 278° West 444 511 30,500 -1,065 Descending Minneapolis Center
Mon 09:21:11 PM 44.9225 -90.8750 278° West 447 514 29,500 -1,403 Descending Minneapolis Center
Mon 09:22:13 PM 44.9383 -91.0519 277° West 449 517 27,600 -2,032 Descending Minneapolis Center
Mon 09:23:15 PM 44.9544 -91.2214 278° West 441 507 25,300 -2,177 Descending Minneapolis Center
Mon 09:24:17 PM 44.9700 -91.3864 278° West 434 499 23,100 -2,102 Descending Minneapolis Center
Mon 09:25:32 PM 44.9864 -91.5767 277° West 420 483 20,500 -2,102 Descending Minneapolis Center
Mon 09:26:34 PM 45.0025 -91.7333 278° West 410 472 18,300 -2,226 Descending Minneapolis Center
Mon 09:27:36 PM 45.0181 -91.9147 277° West 392 451 15,900 -2,129 Descending Minneapolis Center
Mon 09:28:38 PM 45.0300 -92.0603 277° West 377 434 13,900 -1,935 Descending Minneapolis Center
Mon 09:29:40 PM 45.0417 -92.2025 277° West 367 422 11,900 -1,403 Descending Minneapolis Center
Mon 09:30:42 PM 45.0417 -92.3419 270° West 359 413 11,000 -439 Descending Minneapolis Center
Mon 09:31:43 PM 45.0239 -92.4508 257° West 356 410 11,000  Level Minneapolis Center
Mon 09:32:58 PM 44.9983 -92.6111 257° West 291 335 11,000  Level Minneapolis Center
Mon 09:34:13 PM 44.9736 -92.7647 257° West 290 334 11,000 -221 Level Minneapolis Center
Mon 09:35:14 PM 44.9558 -92.8736 257° West 288 331 10,500 -976 Descending Minneapolis Center
Mon 09:36:16 PM 44.9389 -92.9789 257° West 279 321 9,000 -1,210 Descending Minneapolis Center
Mon 09:37:18 PM 44.9400 -93.0803 271° West 280 322 8,000 -532 Descending Minneapolis Center
Mon 09:38:20 PM 44.9964 -93.1892 306° West 289 333 7,900 -750 Descending Minneapolis Center
Mon 09:39:34 PM 45.0411 -93.2794 305° West 283 326 6,300 -1,632 Descending Minneapolis Center
Mon 09:40:36 PM 45.0950 -93.3872 305° West 282 325 4,200 -1,113 Descending Minneapolis Center
Mon 09:41:38 PM 45.0767 -93.4553 249° West 227 261 4,000 -293 Descending Minneapolis Center
Mon 09:42:39 PM 45.0314 -93.4203 151° Southeast 192 221 3,600 -293 Descending Minneapolis Center
Mon 09:43:41 PM 44.9869 -93.3836 150° Southeast 185 213 3,400 -484 Descending Minneapolis Center
Mon 09:44:43 PM 44.9417 -93.3336 142° Southeast 178 205 2,600 -780 Descending Minneapolis Center
Mon 09:45:44 PM 44.9200 -93.2828 121° Southeast 152 175 1,800 -787 Descending Minneapolis Center

Login

Don't have an account? Register now (free) for customized features, flight alerts, and more!